Time;durP1;ratioP1;P1;durP2;ratioP2;P2;SDS_P1;SDS_P2;PMS_P1;PMS_P2;Temp;Humidity;BMP_temperature;BMP_pressure;BME280_temperature;BME280_humidity;BME280_pressure;Samples;Min_cycle;Max_cycle;Signal;HPM_P1;HPM_P2
2022/01/05 00:01:50;;;;;;;;;0.00;0.00;;;;;4.78;64.01;100315.28;5063410;28;45490;-84
2022/01/05 00:04:15;;;;;;;;;0.00;0.00;;;;;4.67;63.49;100307.28;5063637;28;45433;-85
2022/01/05 00:06:41;;;;;;;;;1.00;0.00;;;;;5.17;63.74;100397.94;5064745;28;45327;-85
2022/01/05 00:09:06;;;;;;;;;0.00;0.00;;;;;4.92;63.56;100377.56;5066915;28;45338;-84
2022/01/05 00:11:32;;;;;;;;;0.00;0.00;;;;;4.70;63.51;100347.75;5076967;28;45504;-84
2022/01/05 00:13:58;;;;;;;;;1.00;0.00;;;;;4.77;63.36;100357.38;5071425;28;45295;-84
2022/01/05 00:16:23;;;;;;;;;0.00;0.00;;;;;4.35;63.23;100294.41;5070432;28;47194;-85
2022/01/05 00:18:48;;;;;;;;;0.00;0.00;;;;;4.41;63.10;100307.44;5070142;28;45470;-85
2022/01/05 00:21:14;;;;;;;;;0.00;0.00;;;;;5.01;62.96;100419.91;5068649;28;45647;-85
2022/01/05 00:23:39;;;;;;;;;1.00;0.00;;;;;4.40;62.39;100321.19;5069299;28;45334;-85
2022/01/05 00:26:05;;;;;;;;;0.00;0.00;;;;;4.30;62.78;100314.91;5069025;28;45489;-85
2022/01/05 00:28:30;;;;;;;;;0.00;0.00;;;;;4.44;62.55;100342.75;5070771;28;45398;-85
2022/01/05 00:30:56;;;;;;;;;0.00;0.00;;;;;4.31;61.66;100331.22;5071996;28;45527;-85
2022/01/05 00:33:22;;;;;;;;;0.00;0.00;;;;;4.84;62.25;100429.78;5075988;28;45472;-84
2022/01/05 00:35:47;;;;;;;;;0.00;0.00;;;;;4.22;61.50;100323.25;5073951;28;47280;-85
2022/01/05 00:38:12;;;;;;;;;0.00;0.00;;;;;4.53;61.48;100392.00;5075729;28;45056;-84
2022/01/05 00:40:38;;;;;;;;;0.00;0.00;;;;;4.81;61.71;100446.91;5073670;28;45371;-84
2022/01/05 00:43:03;;;;;;;;;0.00;0.00;;;;;3.95;61.71;100307.03;5073534;28;44860;-84
2022/01/05 00:45:29;;;;;;;;;0.00;0.00;;;;;4.00;61.61;100344.13;5071340;28;47144;-84
2022/01/05 00:47:54;;;;;;;;;0.00;0.00;;;;;4.22;61.58;100355.03;5070775;28;45323;-84
2022/01/05 00:50:20;;;;;;;;;0.00;0.00;;;;;4.12;61.81;100333.31;5087627;28;45180;-84
2022/01/05 00:52:45;;;;;;;;;0.00;0.00;;;;;4.77;61.10;100434.75;5089115;28;45340;-84
2022/01/05 00:55:10;;;;;;;;;0.00;0.00;;;;;4.63;61.96;100413.72;5073298;28;48330;-84
2022/01/05 00:57:36;;;;;;;;;0.00;0.00;;;;;4.07;61.72;100314.25;5072045;28;45279;-84
2022/01/05 01:00:04;;;;;;;;;0.00;0.00;;;;;4.09;61.52;100329.75;5073209;28;44703;-85
2022/01/05 01:02:29;;;;;;;;;0.00;0.00;;;;;4.20;62.02;100348.97;5081004;28;45445;-86
2022/01/05 01:04:54;;;;;;;;;0.00;0.00;;;;;4.90;62.33;100468.63;5081085;28;46916;-83
2022/01/05 01:07:20;;;;;;;;;3.00;0.00;;;;;4.01;61.30;100332.97;5080851;28;44771;-84
2022/01/05 01:09:45;;;;;;;;;0.00;0.00;;;;;4.10;61.78;100352.13;5079088;28;45064;-84
2022/01/05 01:12:11;;;;;;;;;0.00;0.00;;;;;4.75;61.70;100451.88;5079940;28;45501;-82
2022/01/05 01:14:36;;;;;;;;;0.00;0.00;;;;;4.26;61.96;100361.16;5072908;28;48382;-85
2022/01/05 01:17:02;;;;;;;;;0.00;0.00;;;;;4.88;61.46;100442.81;5094166;28;45274;-84
2022/01/05 01:19:27;;;;;;;;;0.00;0.00;;;;;4.61;61.37;100402.53;5079057;28;45309;-85
2022/01/05 01:21:53;;;;;;;;;0.50;0.50;;;;;4.59;61.74;100393.00;5092746;28;45337;-84
2022/01/05 01:24:19;;;;;;;;;0.00;0.00;;;;;4.23;61.68;100322.41;5096959;28;47319;-83
2022/01/05 01:26:44;;;;;;;;;0.00;0.00;;;;;4.44;61.36;100353.06;5077008;28;45385;-84
2022/01/05 01:29:10;;;;;;;;;0.00;0.00;;;;;5.10;61.21;100465.72;5076248;28;45320;-83
2022/01/05 01:31:35;;;;;;;;;0.00;0.00;;;;;5.37;61.04;100521.47;5076413;28;44891;-85
2022/01/05 01:34:01;;;;;;;;;0.00;0.00;;;;;4.64;61.03;100381.97;5076510;28;47313;-83
2022/01/05 01:36:26;;;;;;;;;0.00;0.00;;;;;5.19;60.87;100476.28;5096590;28;44734;-84
2022/01/05 01:38:52;;;;;;;;;0.00;0.00;;;;;4.85;60.74;100421.19;5078304;28;45784;-83
2022/01/05 01:41:17;;;;;;;;;1.00;0.00;;;;;4.86;61.18;100430.66;5093627;28;45351;-84
2022/01/05 01:43:42;;;;;;;;;0.00;0.00;;;;;5.27;61.24;100508.31;5064739;28;47462;-83
2022/01/05 01:46:08;;;;;;;;;0.00;0.00;;;;;4.56;60.76;100392.06;5081595;28;45395;-81
2022/01/05 01:48:34;;;;;;;;;0.00;0.00;;;;;5.42;61.32;100541.41;5081810;28;45545;-82
2022/01/05 01:50:59;;;;;;;;;0.00;0.00;;;;;4.85;60.66;100454.72;5081816;28;45540;-82
2022/01/05 01:53:24;;;;;;;;;0.00;0.00;;;;;5.41;60.95;100560.34;5081348;28;45438;-83
2022/01/05 01:55:51;;;;;;;;;0.00;0.00;;;;;5.05;61.17;100494.84;5080284;28;45389;-82
2022/01/05 01:58:19;;;;;;;;;0.00;0.00;;;;;5.40;60.95;100555.13;5081685;28;45380;-83
2022/01/05 02:00:45;;;;;;;;;0.50;0.50;;;;;4.93;61.19;100494.50;5081257;28;45397;-82
2022/01/05 02:03:12;;;;;;;;;0.00;0.00;;;;;5.42;61.21;100559.50;5081424;28;45323;-82
2022/01/05 02:05:38;;;;;;;;;0.00;0.00;;;;;5.04;61.46;100511.16;5081392;28;45386;-82
2022/01/05 02:08:03;;;;;;;;;0.00;0.00;;;;;5.43;61.18;100575.88;5081903;28;45785;-82
2022/01/05 02:10:29;;;;;;;;;0.00;0.00;;;;;5.41;61.13;100578.41;5082097;28;45297;-82
2022/01/05 02:12:54;;;;;;;;;0.00;0.00;;;;;4.51;60.63;100452.97;5063576;28;46407;-82
2022/01/05 02:15:20;;;;;;;;;2.00;0.00;;;;;4.73;61.08;100494.81;5083448;28;45413;-83
2022/01/05 02:17:56;;;;;;;;;2.00;0.00;;;;;4.64;61.64;100479.09;5088178;28;45359;-83
2022/01/05 02:20:26;;;;;;;;;0.00;0.00;;;;;5.36;60.83;100602.34;5069291;28;45391;-83
2022/01/05 02:22:53;;;;;;;;;0.00;0.00;;;;;5.27;60.86;100579.75;5068608;28;47205;-83
2022/01/05 02:25:19;;;;;;;;;0.00;0.00;;;;;4.98;61.20;100535.91;5070591;28;45811;-84
2022/01/05 02:27:46;;;;;;;;;0.00;0.00;;;;;5.30;61.40;100603.91;5070378;28;45595;-83
2022/01/05 02:30:14;;;;;;;;;0.00;0.00;;;;;4.83;60.95;100526.91;5090433;28;45445;-83
2022/01/05 02:32:40;;;;;;;;;1.00;0.00;;;;;4.84;61.36;100530.38;5082935;28;45578;-83
2022/01/05 02:35:08;;;;;;;;;0.00;0.00;;;;;5.23;61.13;100585.66;5067085;28;45351;-81
2022/01/05 02:37:40;;;;;;;;;0.00;0.00;;;;;4.93;60.72;100544.41;5074787;28;45708;-84
2022/01/05 02:40:07;;;;;;;;;0.00;0.00;;;;;4.87;60.53;100548.53;5064296;28;45347;-83
2022/01/05 02:42:32;;;;;;;;;0.00;0.00;;;;;4.57;61.08;100509.84;5057700;28;48460;-83
2022/01/05 02:44:58;;;;;;;;;0.00;0.00;;;;;4.81;61.13;100557.81;5077441;28;45365;-83
2022/01/05 02:47:23;;;;;;;;;0.00;0.00;;;;;4.55;60.71;100506.34;5079929;28;45397;-83
2022/01/05 02:49:49;;;;;;;;;0.00;0.00;;;;;4.49;61.22;100510.44;5065188;28;45787;-84
2022/01/05 02:52:15;;;;;;;;;0.00;0.00;;;;;5.03;60.29;100594.53;5057116;28;47103;-83
2022/01/05 02:54:42;;;;;;;;;0.00;0.00;;;;;5.06;60.68;100607.53;5073700;28;45802;-85
2022/01/05 02:57:08;;;;;;;;;0.00;0.00;;;;;4.73;60.63;100548.09;5069967;28;45494;-84
2022/01/05 02:59:33;;;;;;;;;0.00;0.00;;;;;4.60;60.41;100521.97;5049725;28;45462;-84
2022/01/05 03:01:59;;;;;;;;;0.00;0.00;;;;;4.89;60.48;100570.94;5070091;28;45420;-83
2022/01/05 03:04:26;;;;;;;;;2.00;2.00;;;;;4.86;60.61;100580.28;5073599;28;45434;-84
2022/01/05 03:06:51;;;;;;;;;1.50;0.00;;;;;4.10;60.41;100468.91;5086060;28;45431;-83
2022/01/05 03:09:17;;;;;;;;;0.00;0.00;;;;;4.68;60.39;100577.22;5093945;28;45420;-84
2022/01/05 03:11:42;;;;;;;;;0.00;0.00;;;;;3.98;60.63;100459.09;5088468;28;45822;-84
2022/01/05 03:14:08;;;;;;;;;0.00;0.00;;;;;4.90;60.55;100626.00;5092879;28;45348;-83
2022/01/05 03:16:33;;;;;;;;;0.00;0.00;;;;;4.91;60.61;100626.06;5087197;28;45369;-83
2022/01/05 03:18:58;;;;;;;;;0.00;0.00;;;;;4.59;60.80;100576.91;5077381;27;45659;-82
2022/01/05 03:21:24;;;;;;;;;0.00;0.00;;;;;4.25;60.44;100517.47;5083597;28;45366;-81
2022/01/05 03:23:49;;;;;;;;;0.00;0.00;;;;;4.07;60.74;100486.84;5094773;28;45499;-83
2022/01/05 03:26:14;;;;;;;;;0.00;0.00;;;;;4.50;60.16;100582.66;5077254;28;45427;-82
2022/01/05 03:28:40;;;;;;;;;0.00;0.00;;;;;4.68;60.65;100612.44;5069698;28;45381;-84
2022/01/05 03:31:06;;;;;;;;;0.00;0.00;;;;;4.01;60.83;100491.84;5099269;28;45486;-84
2022/01/05 03:33:31;;;;;;;;;0.00;0.00;;;;;4.09;60.30;100518.69;5075091;28;44907;-84
2022/01/05 03:35:57;;;;;;;;;1.00;0.00;;;;;3.85;60.49;100477.56;5092118;28;45455;-84
2022/01/05 03:38:23;;;;;;;;;0.00;0.00;;;;;4.26;60.21;100552.72;5075393;28;45591;-82
2022/01/05 03:40:50;;;;;;;;;0.50;0.00;;;;;4.75;61.13;100632.41;5068728;28;46206;-82
2022/01/05 03:43:17;;;;;;;;;0.00;0.00;;;;;4.00;60.17;100516.72;5084151;28;45683;-83
2022/01/05 03:45:43;;;;;;;;;0.00;0.00;;;;;4.93;60.28;100681.13;5076559;28;45450;-81
2022/01/05 03:48:13;;;;;;;;;0.00;0.00;;;;;4.44;60.66;100613.41;5049922;28;45642;-82
2022/01/05 03:50:39;;;;;;;;;0.00;0.00;;;;;4.96;60.50;100685.50;5072218;28;46566;-85
2022/01/05 03:53:06;;;;;;;;;0.00;0.00;;;;;4.82;60.77;100660.19;5083655;28;45389;-81
2022/01/05 03:55:33;;;;;;;;;0.00;0.00;;;;;4.90;60.68;100681.03;5073964;28;45382;-83
2022/01/05 03:57:58;;;;;;;;;0.00;0.00;;;;;4.99;60.41;100695.06;5070390;28;45506;-84
2022/01/05 04:00:27;;;;;;;;;0.00;0.00;;;;;4.77;60.63;100666.88;5068689;28;45445;-84
2022/01/05 04:02:52;;;;;;;;;0.00;0.00;;;;;4.99;60.62;100702.81;5070503;28;45434;-83
2022/01/05 04:05:18;;;;;;;;;0.75;0.00;;;;;4.79;60.38;100666.94;5053100;28;45524;-81
2022/01/05 04:07:43;;;;;;;;;0.00;0.00;;;;;4.38;60.12;100600.34;5083132;28;45426;-83
2022/01/05 04:10:09;;;;;;;;;0.00;0.00;;;;;4.67;60.36;100660.56;5067914;28;48282;-82
2022/01/05 04:12:34;;;;;;;;;0.00;0.00;;;;;4.69;60.23;100655.47;5071352;28;45460;-82
2022/01/05 04:15:00;;;;;;;;;0.00;0.00;;;;;4.13;60.51;100582.38;5073605;28;45350;-83
2022/01/05 04:17:25;;;;;;;;;0.00;0.00;;;;;4.82;60.59;100687.66;5071023;28;45427;-81
2022/01/05 04:19:51;;;;;;;;;0.00;0.00;;;;;4.55;60.77;100645.59;5072092;28;45965;-81
2022/01/05 04:22:17;;;;;;;;;0.00;0.00;;;;;4.55;60.39;100640.44;5055611;28;45385;-85
2022/01/05 04:24:42;;;;;;;;;0.00;0.00;;;;;4.93;61.13;100698.31;5057270;28;45296;-83
2022/01/05 04:27:07;;;;;;;;;0.00;0.00;;;;;4.11;60.88;100584.06;5072225;28;45358;-83
2022/01/05 04:29:33;;;;;;;;;0.00;0.00;;;;;4.18;60.83;100598.88;5054517;28;48447;-83
2022/01/05 04:31:58;;;;;;;;;0.00;0.00;;;;;4.43;60.88;100645.19;5080254;28;45375;-83
2022/01/05 04:34:24;;;;;;;;;0.00;0.00;;;;;4.24;60.45;100607.63;5079683;28;45373;-84
2022/01/05 04:36:49;;;;;;;;;0.00;0.00;;;;;4.61;60.62;100670.69;5060971;28;45360;-83
2022/01/05 04:39:14;;;;;;;;;0.00;0.00;;;;;4.51;60.67;100663.47;5073139;28;45639;-84
2022/01/05 04:41:40;;;;;;;;;1.00;0.00;;;;;4.85;60.45;100725.56;5054702;28;47156;-84
2022/01/05 04:44:05;;;;;;;;;0.00;0.00;;;;;4.75;60.92;100704.63;5069373;28;45829;-83
2022/01/05 04:46:31;;;;;;;;;0.00;0.00;;;;;4.64;60.65;100693.09;5083825;28;45241;-84
2022/01/05 04:48:56;;;;;;;;;0.00;0.00;;;;;4.47;60.97;100679.69;5063664;28;47434;-84
2022/01/05 04:51:21;;;;;;;;;0.00;0.00;;;;;4.29;61.07;100640.44;5068542;28;45893;-85
2022/01/05 04:53:47;;;;;;;;;0.00;0.00;;;;;4.82;60.87;100734.97;5078154;28;45486;-85
2022/01/05 04:56:12;;;;;;;;;0.00;0.00;;;;;4.22;60.85;100642.78;5066431;28;45459;-85
2022/01/05 04:58:38;;;;;;;;;0.00;0.00;;;;;4.81;61.10;100738.38;5084196;28;45539;-85
2022/01/05 05:01:03;;;;;;;;;0.00;0.00;;;;;4.79;60.77;100737.47;5061009;28;45386;-85
2022/01/05 05:03:28;;;;;;;;;0.00;0.00;;;;;4.53;61.42;100697.91;5055090;28;45576;-85
2022/01/05 05:05:54;;;;;;;;;0.00;0.00;;;;;4.73;60.96;100739.84;5060329;28;45285;-85
2022/01/05 05:08:19;;;;;;;;;0.00;0.00;;;;;3.93;61.34;100604.91;5085758;28;45683;-85
2022/01/05 05:10:45;;;;;;;;;0.00;0.00;;;;;4.77;61.00;100753.69;5075175;28;45429;-85
2022/01/05 05:13:11;;;;;;;;;0.00;0.00;;;;;4.56;61.01;100731.53;5088059;28;45195;-84
2022/01/05 05:15:38;;;;;;;;;0.00;0.00;;;;;4.80;61.42;100751.22;5091533;28;45346;-84
2022/01/05 05:18:04;;;;;;;;;0.00;0.00;;;;;4.22;61.26;100677.16;5073747;28;47353;-84
2022/01/05 05:20:30;;;;;;;;;0.00;0.00;;;;;4.47;61.72;100705.47;5063674;28;45570;-84
2022/01/05 05:22:55;;;;;;;;;0.00;0.00;;;;;4.00;61.55;100644.63;5077655;28;45913;-84
2022/01/05 05:25:20;;;;;;;;;0.00;0.00;;;;;4.84;61.35;100788.31;5054667;28;45486;-84
2022/01/05 05:27:46;;;;;;;;;0.00;0.00;;;;;4.40;61.67;100727.56;5051403;28;45968;-84
2022/01/05 05:30:11;;;;;;;;;0.00;0.00;;;;;4.75;61.85;100789.75;5075887;28;45404;-88
2022/01/05 05:32:37;;;;;;;;;0.00;0.00;;;;;4.43;61.37;100764.66;5061093;28;45363;-89
2022/01/05 05:35:05;;;;;;;;;0.00;0.00;;;;;4.53;61.35;100788.13;5087761;28;44945;-90
2022/01/05 05:37:30;;;;;;;;;0.00;0.00;;;;;3.77;61.75;100673.03;5068467;28;47114;-89
2022/01/05 05:39:56;;;;;;;;;0.00;0.00;;;;;4.32;61.48;100768.56;5071847;28;45050;-88
2022/01/05 05:42:22;;;;;;;;;0.00;0.00;;;;;4.60;61.46;100809.88;5084801;28;45373;-88
2022/01/05 05:44:47;;;;;;;;;0.00;0.00;;;;;4.20;61.33;100735.50;5060634;28;45421;-90
2022/01/05 05:47:13;;;;;;;;;0.00;0.00;;;;;4.51;61.86;100782.06;5060396;28;47044;-90
2022/01/05 05:49:38;;;;;;;;;0.00;0.00;;;;;4.46;62.38;100781.91;5057944;28;45352;-90
2022/01/05 05:52:04;;;;;;;;;1.50;0.50;;;;;3.49;61.89;100620.56;5065489;28;45538;-90
2022/01/05 05:54:30;;;;;;;;;0.75;0.75;;;;;4.24;61.80;100749.34;5058590;28;45339;-88
2022/01/05 05:56:56;;;;;;;;;0.00;0.00;;;;;4.56;61.80;100807.19;5057782;28;47282;-88
2022/01/05 05:59:21;;;;;;;;;0.00;0.00;;;;;4.39;62.21;100767.94;5087444;28;45466;-88
2022/01/05 06:01:47;;;;;;;;;0.00;0.00;;;;;4.23;62.05;100747.63;5064745;28;45481;-87
2022/01/05 06:04:12;;;;;;;;;0.00;0.00;;;;;4.65;61.81;100824.69;5055815;28;45536;-88
2022/01/05 06:06:38;;;;;;;;;2.00;0.00;;;;;4.34;62.43;100764.31;5064553;28;45453;-87
2022/01/05 06:09:03;;;;;;;;;0.00;0.00;;;;;3.93;62.19;100693.34;5065489;28;45413;-87
2022/01/05 06:11:29;;;;;;;;;0.00;0.00;;;;;4.37;62.20;100776.44;5056287;28;45630;-87
2022/01/05 06:13:54;;;;;;;;;0.00;0.00;;;;;3.64;62.09;100652.00;5066753;28;45575;-87
2022/01/05 06:16:20;;;;;;;;;0.00;0.00;;;;;4.35;61.78;100766.06;5065263;28;47513;-88
2022/01/05 06:18:45;;;;;;;;;0.00;0.00;;;;;3.93;61.70;100711.38;5083192;28;45482;-89
2022/01/05 06:21:12;;;;;;;;;0.00;0.00;;;;;4.53;61.61;100793.28;5062324;28;45735;-87
2022/01/05 06:23:37;;;;;;;;;0.00;0.00;;;;;4.74;62.08;100842.16;5045516;28;45382;-89
2022/01/05 06:26:02;;;;;;;;;0.50;0.00;;;;;4.78;62.11;100844.03;5060704;28;48088;-89
2022/01/05 06:28:28;;;;;;;;;0.00;0.00;;;;;4.73;61.84;100837.84;5072997;28;44677;-90
2022/01/05 06:30:53;;;;;;;;;0.00;0.00;;;;;4.66;62.54;100836.75;5068280;28;44921;-89
2022/01/05 06:33:19;;;;;;;;;0.00;0.00;;;;;4.40;62.54;100803.19;5069859;28;45229;-88
2022/01/05 06:35:44;;;;;;;;;0.00;0.00;;;;;3.85;62.20;100697.34;5072162;28;48106;-89
2022/01/05 06:38:09;;;;;;;;;0.00;0.00;;;;;4.29;62.88;100773.59;5062412;28;45899;-90
2022/01/05 06:40:35;;;;;;;;;0.00;0.00;;;;;4.42;62.22;100792.94;5046613;28;45411;-89
2022/01/05 06:43:01;;;;;;;;;0.00;0.00;;;;;4.69;62.33;100828.25;5065815;28;45524;-90
2022/01/05 06:45:27;;;;;;;;;0.00;0.00;;;;;4.31;61.87;100782.25;5045994;28;48212;-88
2022/01/05 06:47:52;;;;;;;;;0.00;0.00;;;;;4.75;62.10;100863.69;5069969;28;45307;-87
2022/01/05 06:50:18;;;;;;;;;0.00;0.00;;;;;4.36;62.40;100801.34;5068966;28;45327;-88
2022/01/05 06:52:44;;;;;;;;;0.00;0.00;;;;;4.43;62.01;100815.31;5069645;28;45483;-88
2022/01/05 06:55:10;;;;;;;;;0.00;0.00;;;;;4.69;61.84;100866.94;5066919;28;47242;-87
2022/01/05 06:57:39;;;;;;;;;0.00;0.00;;;;;4.44;62.01;100833.41;5086028;28;45450;-87
2022/01/05 07:00:05;;;;;;;;;0.00;0.00;;;;;4.59;62.60;100862.28;5051416;28;45520;-88
2022/01/05 07:02:31;;;;;;;;;1.50;0.00;;;;;4.62;62.10;100876.13;5050003;28;45393;-87
2022/01/05 07:04:56;;;;;;;;;0.75;0.75;;;;;3.98;62.20;100773.38;5060839;28;46805;-86
2022/01/05 07:07:22;;;;;;;;;0.00;0.00;;;;;4.17;62.49;100807.56;5058236;28;45785;-84
2022/01/05 07:09:48;;;;;;;;;0.00;0.00;;;;;3.77;63.31;100734.84;5092230;28;45408;-88
2022/01/05 07:12:14;;;;;;;;;0.00;0.00;;;;;4.11;63.04;100795.31;5087188;28;45479;-86
2022/01/05 07:14:40;;;;;;;;;0.00;0.00;;;;;4.59;63.04;100882.91;5057492;28;48238;-87
2022/01/05 07:17:05;;;;;;;;;0.00;0.00;;;;;4.63;62.40;100897.66;5071755;28;45468;-87
2022/01/05 07:19:31;;;;;;;;;0.00;0.00;;;;;4.32;62.93;100848.47;5060249;28;45417;-88
2022/01/05 07:21:56;;;;;;;;;0.00;0.00;;;;;4.38;62.74;100858.97;5075485;28;45424;-87
2022/01/05 07:24:21;;;;;;;;;0.00;0.00;;;;;3.60;62.94;100766.00;5053761;28;47418;-87
2022/01/05 07:26:48;;;;;;;;;0.00;0.00;;;;;4.30;63.31;100894.81;5060290;28;45292;-87
2022/01/05 07:29:15;;;;;;;;;0.00;0.00;;;;;4.21;63.35;100867.78;5057221;28;44766;-88
2022/01/05 07:31:42;;;;;;;;;0.50;0.50;;;;;3.82;63.56;100826.03;5048892;28;45371;-87
2022/01/05 07:34:07;;;;;;;;;0.00;0.00;;;;;4.34;63.81;100918.97;5069471;28;46864;-86
2022/01/05 07:36:33;;;;;;;;;0.00;0.00;;;;;3.70;63.27;100821.28;5067660;28;45446;-86
2022/01/05 07:38:59;;;;;;;;;0.25;0.00;;;;;3.61;63.23;100821.81;5058815;28;45223;-87
2022/01/05 07:41:25;;;;;;;;;0.00;0.00;;;;;4.09;64.23;100907.75;5067642;28;45314;-86
2022/01/05 07:43:51;;;;;;;;;0.00;0.00;;;;;3.89;62.94;100858.91;5088187;28;45482;-87
2022/01/05 07:46:17;;;;;;;;;4.00;0.00;;;;;4.31;63.80;100934.31;5067873;28;45212;-88
2022/01/05 07:48:42;;;;;;;;;0.00;0.00;;;;;4.14;64.28;100897.63;5068366;28;44804;-85
2022/01/05 07:51:07;;;;;;;;;0.00;0.00;;;;;4.01;63.42;100889.41;5083524;28;45296;-85
2022/01/05 07:53:33;;;;;;;;;0.00;0.00;;;;;3.93;63.57;100870.22;5085570;28;45541;-87
2022/01/05 07:55:58;;;;;;;;;0.00;0.00;;;;;4.18;63.29;100918.41;5063251;28;45445;-87
2022/01/05 07:58:23;;;;;;;;;0.00;0.00;;;;;3.99;63.45;100880.78;5064728;28;45038;-88
2022/01/05 08:00:50;;;;;;;;;0.00;0.00;;;;;4.26;63.46;100930.72;5082508;28;45324;-89
2022/01/05 08:03:15;;;;;;;;;0.00;0.00;;;;;3.75;64.52;100858.41;5071855;28;47462;-86
2022/01/05 08:05:41;;;;;;;;;0.00;0.00;;;;;3.85;63.79;100862.19;5064713;28;45383;-82
2022/01/05 08:08:06;;;;;;;;;0.00;0.00;;;;;3.91;63.66;100866.69;5073840;28;45494;-85
2022/01/05 08:10:31;;;;;;;;;0.00;0.00;;;;;3.82;63.61;100862.06;5076080;28;45647;-87
2022/01/05 08:12:57;;;;;;;;;0.00;0.00;;;;;3.97;63.86;100889.22;5068644;28;47267;-88
2022/01/05 08:16:24;;;;;;;;;0.00;0.00;;;;;4.55;63.50;100987.63;5082576;28;44962;-88
2022/01/05 08:18:49;;;;;;;;;0.00;0.00;;;;;4.58;63.45;100985.16;5045942;28;46469;-88
2022/01/05 08:21:17;;;;;;;;;0.00;0.00;;;;;4.37;63.71;100951.72;5067500;28;45564;-88
2022/01/05 08:23:42;;;;;;;;;0.00;0.00;;;;;4.22;63.79;100914.22;5076829;28;45780;-90
2022/01/05 08:26:08;;;;;;;;;0.00;0.00;;;;;3.81;63.32;100837.16;5048651;28;45466;-84
2022/01/05 08:28:34;;;;;;;;;0.00;0.00;;;;;4.43;63.87;100958.00;5075129;28;45408;-85
2022/01/05 08:31:00;;;;;;;;;0.00;0.00;;;;;4.66;63.52;100993.19;5064283;28;45821;-84
2022/01/05 08:33:25;;;;;;;;;0.00;0.00;;;;;3.50;63.26;100798.25;5072042;28;45632;-91
2022/01/05 08:35:55;;;;;;;;;1.00;0.00;;;;;3.88;63.81;100866.56;5066234;28;45413;-92
2022/01/05 08:38:32;;;;;;;;;0.00;0.00;;;;;4.57;64.26;101001.47;5068313;28;45442;-91
2022/01/05 08:40:58;;;;;;;;;0.00;0.00;;;;;3.74;63.92;100863.50;5057859;28;45273;-84
2022/01/05 08:43:26;;;;;;;;;0.00;0.00;;;;;4.22;63.83;100941.72;5057372;28;46882;-91
2022/01/05 08:45:52;;;;;;;;;0.00;0.00;;;;;4.11;63.71;100910.38;5056785;28;45555;-85
2022/01/05 08:48:17;;;;;;;;;1.00;0.00;;;;;4.53;64.33;100979.84;5057084;28;45548;-84
2022/01/05 08:50:47;;;;;;;;;0.75;0.75;;;;;4.64;63.93;101000.88;5053615;28;45747;-84
2022/01/05 08:53:12;;;;;;;;;0.00;0.00;;;;;4.73;63.69;100996.88;5075820;28;46576;-86
2022/01/05 08:55:48;;;;;;;;;0.00;0.00;;;;;4.31;64.12;100918.84;5052137;28;45329;-84
2022/01/05 08:58:15;;;;;;;;;0.00;0.00;;;;;4.63;63.39;100982.75;5085238;28;45371;-85
2022/01/05 09:00:41;;;;;;;;;0.00;0.00;;;;;4.32;63.64;100925.78;5063196;28;45503;-85
2022/01/05 09:03:06;;;;;;;;;0.00;0.00;;;;;4.71;63.27;100976.16;5082737;28;46343;-85
2022/01/05 09:05:32;;;;;;;;;0.00;0.00;;;;;4.95;62.99;101014.00;5079313;28;45424;-85
2022/01/05 09:07:58;;;;;;;;;0.00;0.00;;;;;4.19;63.08;100883.19;5069388;28;45496;-85
2022/01/05 09:10:23;;;;;;;;;0.00;0.00;;;;;4.26;63.38;100907.50;5065646;28;45629;-85
2022/01/05 09:12:49;;;;;;;;;0.25;0.00;;;;;4.27;62.68;100902.41;5070589;28;45463;-81
2022/01/05 09:15:15;;;;;;;;;0.00;0.00;;;;;4.55;63.29;100943.78;5067999;28;45468;-79
2022/01/05 09:17:40;;;;;;;;;0.00;0.00;;;;;4.39;63.11;100912.31;5082679;28;45577;-81
2022/01/05 09:20:07;;;;;;;;;0.00;0.00;;;;;4.80;62.85;100973.03;5086652;28;45347;-81
2022/01/05 09:22:37;;;;;;;;;1.00;1.00;;;;;4.57;62.91;100921.53;5067532;28;45487;-82
2022/01/05 09:25:09;;;;;;;;;0.00;0.00;;;;;5.24;62.76;101028.78;5076397;28;45420;-83
2022/01/05 09:27:36;;;;;;;;;0.00;0.00;;;;;5.12;62.65;101017.22;5069412;28;46250;-80
2022/01/05 09:30:03;;;;;;;;;0.00;0.00;;;;;5.19;63.08;101034.66;5096588;28;45354;-80
2022/01/05 09:32:29;;;;;;;;;0.50;0.25;;;;;5.04;63.15;101004.03;5081004;28;45539;-81
2022/01/05 09:34:54;;;;;;;;;0.00;0.00;;;;;4.67;62.68;100940.78;5077658;28;44881;-81
2022/01/05 09:37:24;;;;;;;;;0.00;0.00;;;;;5.20;62.56;101051.00;5078399;28;45248;-81
2022/01/05 09:42:37;;;;;;;;;0.00;0.00;;;;;5.55;62.91;101064.28;5060509;28;45557;-81
2022/01/05 09:45:14;;;;;;;;;0.00;0.00;;;;;5.31;62.63;101020.44;5091851;28;44839;-81
2022/01/05 09:47:39;;;;;;;;;0.00;0.00;;;;;5.64;61.88;101065.44;5086591;28;44825;-81
2022/01/05 09:50:10;;;;;;;;;0.00;0.00;;;;;5.25;62.54;101005.59;5087697;27;45445;-82
2022/01/05 09:52:39;;;;;;;;;0.00;0.00;;;;;5.14;62.31;100996.59;5049606;28;45987;-81
2022/01/05 09:55:07;;;;;;;;;0.00;0.00;;;;;5.85;61.91;101091.09;5061647;28;45406;-80
2022/01/05 09:57:33;;;;;;;;;0.00;0.00;;;;;5.83;61.52;101085.03;5061448;28;45378;-81
2022/01/05 09:59:59;;;;;;;;;0.00;0.00;;;;;5.83;62.20;101097.94;5066829;28;45473;-81
2022/01/05 10:02:25;;;;;;;;;0.00;0.00;;;;;5.85;61.62;101098.00;5079210;28;46375;-83
2022/01/05 10:04:50;;;;;;;;;0.00;0.00;;;;;5.82;62.12;101078.13;5068478;28;45543;-82
2022/01/05 10:07:16;;;;;;;;;0.00;0.00;;;;;5.65;62.28;101049.09;5074249;28;45375;-82
2022/01/05 10:09:43;;;;;;;;;0.00;0.00;;;;;6.06;61.37;101103.91;5087006;28;45516;-83
2022/01/05 10:12:10;;;;;;;;;0.00;0.00;;;;;6.02;61.37;101086.53;5076835;28;45331;-84
2022/01/05 10:14:44;;;;;;;;;0.50;0.50;;;;;5.87;61.59;101029.16;5047330;28;45425;-83
2022/01/05 10:17:12;;;;;;;;;1.00;0.00;;;;;6.06;61.21;101028.97;5068761;28;45803;-86
2022/01/05 10:19:38;;;;;;;;;0.00;0.00;;;;;5.86;60.50;100980.91;5070316;28;45386;-85
2022/01/05 10:22:26;;;;;;;;;0.00;0.00;;;;;6.07;60.36;101029.84;5054831;28;47220;-84
2022/01/05 10:24:53;;;;;;;;;0.00;0.00;;;;;6.00;61.24;101051.13;5069726;28;45395;-84
2022/01/05 10:27:21;;;;;;;;;0.00;0.00;;;;;6.06;60.37;101054.81;5051271;28;45516;-85
2022/01/05 10:29:56;;;;;;;;;0.00;0.00;;;;;6.55;60.88;101111.50;5071161;28;45462;-85
2022/01/05 10:32:23;;;;;;;;;0.00;0.00;;;;;5.67;61.00;100967.41;5069387;28;45415;-85
2022/01/05 10:35:04;;;;;;;;;0.00;0.00;;;;;6.23;60.52;101054.47;5054972;28;45458;-83
2022/01/05 10:37:30;;;;;;;;;0.00;0.00;;;;;6.53;60.22;101084.72;5079083;28;46692;-85
2022/01/05 10:40:10;;;;;;;;;0.00;0.00;;;;;6.53;60.22;101092.47;5059982;28;45297;-84
2022/01/05 10:42:37;;;;;;;;;1.50;0.00;;;;;6.54;60.34;101111.44;5069841;28;46240;-82
2022/01/05 10:45:05;;;;;;;;;0.00;0.00;;;;;6.29;60.24;101062.44;5071116;28;45910;-84
2022/01/05 10:47:32;;;;;;;;;0.00;0.00;;;;;6.66;60.61;101122.19;5061693;28;45441;-85
2022/01/05 10:49:58;;;;;;;;;1.00;0.00;;;;;6.78;59.99;101120.81;5059901;28;45367;-81
2022/01/05 10:52:29;;;;;;;;;0.00;0.00;;;;;6.53;60.29;101096.75;5076411;28;45642;-83
2022/01/05 10:55:07;;;;;;;;;0.00;0.00;;;;;6.56;59.85;101099.44;5062844;28;45604;-83
2022/01/05 10:57:33;;;;;;;;;0.00;0.00;;;;;6.86;59.65;101129.66;5051896;28;45398;-82
2022/01/05 10:59:58;;;;;;;;;0.00;0.00;;;;;6.90;59.62;101134.13;5070535;28;45487;-82
2022/01/05 11:02:26;;;;;;;;;0.00;0.00;;;;;6.55;59.61;101070.09;5073092;27;46402;-81
2022/01/05 11:05:13;;;;;;;;;0.00;0.00;;;;;6.98;59.18;101134.34;5074661;27;45563;-84
2022/01/05 11:07:40;;;;;;;;;0.00;0.00;;;;;7.08;59.76;101135.50;5074842;28;45545;-84
2022/01/05 11:10:11;;;;;;;;;0.00;0.00;;;;;6.90;59.58;101103.06;5066312;28;45436;-83
2022/01/05 11:12:42;;;;;;;;;0.00;0.00;;;;;6.62;58.91;101068.59;5065930;28;45892;-83
2022/01/05 11:15:20;;;;;;;;;0.00;0.00;;;;;6.94;58.41;101133.38;5066885;28;45361;-84
2022/01/05 11:18:08;;;;;;;;;0.00;0.00;;;;;6.96;58.63;101133.44;5051879;28;45401;-83
2022/01/05 11:20:58;;;;;;;;;0.00;0.00;;;;;6.68;59.36;101073.94;5072354;28;45500;-82
2022/01/05 11:23:26;;;;;;;;;0.00;0.00;;;;;7.03;59.32;101143.13;5057246;28;46244;-82
2022/01/05 11:25:53;;;;;;;;;0.00;0.00;;;;;7.07;58.82;101138.91;5053421;28;46242;-82
2022/01/05 11:28:21;;;;;;;;;0.00;0.00;;;;;6.65;58.33;101072.97;5070729;28;45371;-84
2022/01/05 11:30:49;;;;;;;;;0.00;0.00;;;;;6.95;58.39;101148.06;5073360;28;45250;-85
2022/01/05 11:33:15;;;;;;;;;0.00;0.00;;;;;6.75;58.14;101111.25;5081102;28;46455;-82
2022/01/05 11:35:41;;;;;;;;;0.00;0.00;;;;;6.89;58.43;101127.16;5061710;28;45962;-80